Nearby METAR Reports

 

GCLP - Las Palmas/Gando, Spain
Distance from station: NE 26km
Updated: 20/07/2019 09:30
Mostly cloudy
Mostly cloudy
 Wind from N
Wind: N 33 km/h
Temperature: 23°C
Dew Point: 18°C
Humidity: 74%
Barometer: 1018 hPa
Clouds: Mostly cloudy
Visibility: 10 km
Cloud details: Few Clouds 671 m
Mostly cloudy 975 m
2019/07/20 09:30 GCLP 200930Z 01018KT 9999 FEW022 BKN032 23/18 Q1018 NOSIG
GCTS - Tenerife Sur/Rei, Spain
Distance from station: WNW 102km
Updated: 20/07/2019 09:30
Partly cloudy
Partly cloudy
 Wind from E
Wind: E 22 km/h
Temperature: 25°C
Dew Point: 17°C
Humidity: 61%
Barometer: 1018 hPa
Clouds: Partly cloudy
Visibility: 10 km
Cloud details: Partly cloudy 945 m
2019/07/20 09:30 GCTS 200930Z 10012KT 9999 SCT031 25/17 Q1018 NOSIG
 
GCXO - Tenerife/Los Rod, Spain
Distance from station: NW 110km
Updated: 20/07/2019 09:30
Mostly cloudy
Mostly cloudy
 Wind from NW
Wind: NW 30 km/h
Temperature: 18°C
Dew Point: 17°C
Humidity: 94%
Barometer: 1021 hPa
Clouds: Mostly cloudy
Visibility: 10 km
Cloud details: Few Clouds 61 m
Partly cloudy 213 m
Mostly cloudy 305 m
2019/07/20 09:30 GCXO 200930Z 31016KT 9999 FEW002 SCT007 BKN010 18/17 Q1021 WS R30 NOSIG
GCGM - La Gomera Arpt, Spain
Distance from station: W 164km
Updated: 20/07/2019 09:30
Few Clouds
Few Clouds
 Wind from SW
Wind: SW 13 km/h
Temperature: 23°C
Dew Point: 17°C
Humidity: 69%
Barometer: 1019 hPa
Clouds: Few Clouds
Visibility: 10 km
Cloud details: Few Clouds 762 m
2019/07/20 09:30 GCGM 200930Z 23007KT 180V260 9999 FEW025 23/17 Q1019 RMK R09/24005KT 160V290 ARP/25007KT 190V280
 
GCFV - Fuerteventura Ar, Spain
Distance from station: ENE 183km
Updated: 20/07/2019 09:30
Mostly cloudy
Mostly cloudy
 Wind from NNE
Wind: NNE 24 km/h
Temperature: 23°C
Dew Point: 18°C
Humidity: 74%
Barometer: 1017 hPa
Clouds: Mostly cloudy
Visibility: 10 km
Cloud details: Mostly cloudy 762 m
2019/07/20 09:30 GCFV 200930Z 02013KT 9999 BKN025 23/18 Q1017
GCHI - Hierro Airport, Spain
Distance from station: W 226km
Updated: 20/07/2019 09:30
Mostly cloudy
Mostly cloudy
 Wind from N
Wind: N 30 km/h
Temperature: 23°C
Dew Point: 18°C
Humidity: 74%
Barometer: 1019 hPa
Clouds: Mostly cloudy
Visibility: 10 km
Cloud details: Few Clouds 732 m
Mostly cloudy 975 m
2019/07/20 09:30 GCHI 200930Z 35016KT 9999 FEW024 BKN032 23/18 Q1019
 
GCLA - La Palma Airport, Spain
Distance from station: WNW 233km
Updated: 20/07/2019 09:30
Mostly cloudy
Mostly cloudy
 Wind from N
Wind: N 26 km/h
Temperature: 25°C
Dew Point: 15°C
Humidity: 54%
Barometer: 1019 hPa
Clouds: Mostly cloudy
Visibility: 10 km
Cloud details: Mostly cloudy 1158 m
2019/07/20 09:30 GCLA 200930Z 01014KT 9999 BKN038 25/15 Q1019
GCRR - Arrecife/Lanzaro, Spain
Distance from station: NE 234km
Updated: 20/07/2019 09:30
Overcast
Overcast
 Wind from N
Wind: N 22 km/h
Temperature: 23°C
Dew Point: 18°C
Humidity: 74%
Barometer: 1017 hPa
Clouds: Overcast
Visibility: 10 km
Cloud details: Overcast 701 m
2019/07/20 09:30 GCRR 200930Z 01012KT 9999 OVC023 23/18 Q1017
 
LPMA - Funchal/Madeira, Portugal
Distance from station: NNW 556km
Updated: 20/07/2019 09:30
Partly cloudy
Partly cloudy
 Wind from N
Wind: N 24 km/h, Gust: 44 km/h
Temperature: 23°C
Dew Point: 16°C
Humidity: 65%
Barometer: 1021 hPa
Clouds: Partly cloudy
Visibility: 10 km
Cloud details: Partly cloudy 457 m
2019/07/20 09:30 LPMA 200930Z 01013G24KT 330V050 9999 SCT015 23/16 Q1021
LPPS - Porto Santo Isla, Portugal
Distance from station: N 594km
Updated: 20/07/2019 09:30
Mostly cloudy
Mostly cloudy
 Wind from NE
Wind: NE 19 km/h
Temperature: 21°C
Dew Point: 19°C
Humidity: 88%
Barometer: 1021 hPa
Clouds: Mostly cloudy
Visibility: 10 km
Cloud details: Partly cloudy 366 m
Mostly cloudy 914 m
2019/07/20 09:30 LPPS 200930Z 04010KT 010V070 9999 SCT012 BKN030 21/19 Q1021